sensor_id;sensor_type;location;lat;lon;timestamp;pressure;altitude;pressure_sealevel;temperature;humidity
35507;BME280;36461;52.018;21.036;2024-03-25T00:00:07;98881.98;;;3.09;85.83
35507;BME280;36461;52.018;21.036;2024-03-25T00:02:58;98884.61;;;3.07;86.07
35507;BME280;36461;52.018;21.036;2024-03-25T00:05:27;98885.88;;;3.04;85.56
35507;BME280;36461;52.018;21.036;2024-03-25T00:07:55;98883.13;;;3.04;86.05
35507;BME280;36461;52.018;21.036;2024-03-25T00:10:23;98884.85;;;3.04;86.00
35507;BME280;36461;52.018;21.036;2024-03-25T00:12:51;98879.97;;;3.01;86.01
35507;BME280;36461;52.018;21.036;2024-03-25T00:15:23;98881.31;;;3.02;86.08
35507;BME280;36461;52.018;21.036;2024-03-25T00:17:51;98880.03;;;2.99;85.83
35507;BME280;36461;52.018;21.036;2024-03-25T00:20:19;98873.63;;;2.96;86.13
35507;BME280;36461;52.018;21.036;2024-03-25T00:22:47;98873.13;;;2.94;85.83
35507;BME280;36461;52.018;21.036;2024-03-25T00:25:15;98869.73;;;2.93;85.83
35507;BME280;36461;52.018;21.036;2024-03-25T00:27:44;98871.59;;;2.95;86.11
35507;BME280;36461;52.018;21.036;2024-03-25T00:30:12;98872.59;;;2.96;86.32
35507;BME280;36461;52.018;21.036;2024-03-25T00:32:41;98871.52;;;2.97;86.23
35507;BME280;36461;52.018;21.036;2024-03-25T00:35:09;98865.08;;;2.96;86.36
35507;BME280;36461;52.018;21.036;2024-03-25T00:37:37;98865.45;;;2.94;86.18
35507;BME280;36461;52.018;21.036;2024-03-25T00:40:06;98861.17;;;2.94;86.23
35507;BME280;36461;52.018;21.036;2024-03-25T00:42:35;98859.77;;;2.95;86.18
35507;BME280;36461;52.018;21.036;2024-03-25T00:45:03;98856.68;;;2.96;86.47
35507;BME280;36461;52.018;21.036;2024-03-25T00:47:33;98857.71;;;2.96;86.43
35507;BME280;36461;52.018;21.036;2024-03-25T00:50:01;98853.94;;;2.96;86.36
35507;BME280;36461;52.018;21.036;2024-03-25T00:52:29;98853.91;;;2.98;86.41
35507;BME280;36461;52.018;21.036;2024-03-25T00:54:57;98851.51;;;2.98;85.95
35507;BME280;36461;52.018;21.036;2024-03-25T00:57:25;98853.00;;;2.93;86.26
35507;BME280;36461;52.018;21.036;2024-03-25T00:59:53;98850.70;;;2.90;86.19
35507;BME280;36461;52.018;21.036;2024-03-25T01:02:21;98852.95;;;2.88;86.11
35507;BME280;36461;52.018;21.036;2024-03-25T01:04:49;98848.94;;;2.85;86.16
35507;BME280;36461;52.018;21.036;2024-03-25T01:07:17;98849.44;;;2.85;86.48
35507;BME280;36461;52.018;21.036;2024-03-25T01:09:45;98848.88;;;2.81;86.02
35507;BME280;36461;52.018;21.036;2024-03-25T01:12:13;98847.10;;;2.76;86.46
35507;BME280;36461;52.018;21.036;2024-03-25T01:14:41;98844.95;;;2.74;86.54
35507;BME280;36461;52.018;21.036;2024-03-25T01:17:09;98844.28;;;2.73;86.34
35507;BME280;36461;52.018;21.036;2024-03-25T01:19:37;98842.23;;;2.73;86.84
35507;BME280;36461;52.018;21.036;2024-03-25T01:22:05;98840.89;;;2.71;86.49
35507;BME280;36461;52.018;21.036;2024-03-25T01:24:33;98841.90;;;2.73;86.82
35507;BME280;36461;52.018;21.036;2024-03-25T01:27:02;98838.21;;;2.76;86.95
35507;BME280;36461;52.018;21.036;2024-03-25T01:29:31;98836.34;;;2.76;87.00
35507;BME280;36461;52.018;21.036;2024-03-25T01:31:59;98839.08;;;2.76;86.86
35507;BME280;36461;52.018;21.036;2024-03-25T01:34:27;98830.58;;;2.75;87.05
35507;BME280;36461;52.018;21.036;2024-03-25T01:36:55;98826.77;;;2.76;87.03
35507;BME280;36461;52.018;21.036;2024-03-25T01:39:23;98827.46;;;2.76;87.02
35507;BME280;36461;52.018;21.036;2024-03-25T01:41:54;98826.44;;;2.76;87.24
35507;BME280;36461;52.018;21.036;2024-03-25T01:44:22;98830.20;;;2.76;86.82
35507;BME280;36461;52.018;21.036;2024-03-25T01:46:50;98826.41;;;2.77;87.08
35507;BME280;36461;52.018;21.036;2024-03-25T01:49:20;98830.00;;;2.77;87.55
35507;BME280;36461;52.018;21.036;2024-03-25T01:51:49;98825.85;;;2.79;87.41
35507;BME280;36461;52.018;21.036;2024-03-25T01:54:17;98822.12;;;2.78;87.40
35507;BME280;36461;52.018;21.036;2024-03-25T01:56:47;98818.55;;;2.77;87.28
35507;BME280;36461;52.018;21.036;2024-03-25T01:59:17;98822.46;;;2.78;87.19
35507;BME280;36461;52.018;21.036;2024-03-25T02:01:47;98826.25;;;2.77;87.40
35507;BME280;36461;52.018;21.036;2024-03-25T02:04:16;98826.79;;;2.75;87.34
35507;BME280;36461;52.018;21.036;2024-03-25T02:06:44;98828.07;;;2.72;87.36
35507;BME280;36461;52.018;21.036;2024-03-25T02:09:13;98827.58;;;2.71;87.29
35507;BME280;36461;52.018;21.036;2024-03-25T02:11:41;98820.53;;;2.67;87.45
35507;BME280;36461;52.018;21.036;2024-03-25T02:14:10;98822.95;;;2.66;87.32
35507;BME280;36461;52.018;21.036;2024-03-25T02:16:38;98820.67;;;2.68;87.75
35507;BME280;36461;52.018;21.036;2024-03-25T02:19:07;98818.52;;;2.64;87.63
35507;BME280;36461;52.018;21.036;2024-03-25T02:21:38;98821.77;;;2.64;87.93
35507;BME280;36461;52.018;21.036;2024-03-25T02:24:10;98820.74;;;2.64;87.58
35507;BME280;36461;52.018;21.036;2024-03-25T02:26:39;98824.11;;;2.60;87.67
35507;BME280;36461;52.018;21.036;2024-03-25T02:29:09;98825.40;;;2.56;87.53
35507;BME280;36461;52.018;21.036;2024-03-25T02:31:37;98824.56;;;2.56;87.79
35507;BME280;36461;52.018;21.036;2024-03-25T02:34:05;98826.59;;;2.57;87.74
35507;BME280;36461;52.018;21.036;2024-03-25T02:36:33;98828.80;;;2.57;87.70
35507;BME280;36461;52.018;21.036;2024-03-25T02:39:01;98832.73;;;2.57;87.87
35507;BME280;36461;52.018;21.036;2024-03-25T02:41:30;98830.17;;;2.56;87.86
35507;BME280;36461;52.018;21.036;2024-03-25T02:43:59;98828.79;;;2.57;87.84
35507;BME280;36461;52.018;21.036;2024-03-25T02:46:27;98827.60;;;2.57;87.83
35507;BME280;36461;52.018;21.036;2024-03-25T02:48:55;98819.90;;;2.57;87.94
35507;BME280;36461;52.018;21.036;2024-03-25T02:51:23;98829.11;;;2.58;87.76
35507;BME280;36461;52.018;21.036;2024-03-25T02:53:51;98831.91;;;2.62;88.42
35507;BME280;36461;52.018;21.036;2024-03-25T02:56:19;98838.89;;;2.63;88.05
35507;BME280;36461;52.018;21.036;2024-03-25T02:58:47;98841.59;;;2.64;88.38
35507;BME280;36461;52.018;21.036;2024-03-25T03:01:16;98839.56;;;2.63;88.36
35507;BME280;36461;52.018;21.036;2024-03-25T03:03:44;98834.98;;;2.62;88.09
35507;BME280;36461;52.018;21.036;2024-03-25T03:06:12;98835.17;;;2.61;88.40
35507;BME280;36461;52.018;21.036;2024-03-25T03:08:41;98834.78;;;2.63;88.23
35507;BME280;36461;52.018;21.036;2024-03-25T03:11:09;98842.18;;;2.68;88.52
35507;BME280;36461;52.018;21.036;2024-03-25T03:13:37;98851.68;;;2.71;88.64
35507;BME280;36461;52.018;21.036;2024-03-25T03:16:05;98847.08;;;2.71;88.10
35507;BME280;36461;52.018;21.036;2024-03-25T03:18:33;98849.14;;;2.70;88.44
35507;BME280;36461;52.018;21.036;2024-03-25T03:21:01;98849.98;;;2.71;88.19
35507;BME280;36461;52.018;21.036;2024-03-25T03:23:29;98850.19;;;2.76;88.74
35507;BME280;36461;52.018;21.036;2024-03-25T03:25:57;98852.90;;;2.77;88.46
35507;BME280;36461;52.018;21.036;2024-03-25T03:28:27;98854.08;;;2.77;88.45
35507;BME280;36461;52.018;21.036;2024-03-25T03:30:56;98857.60;;;2.80;88.65
35507;BME280;36461;52.018;21.036;2024-03-25T03:33:24;98863.66;;;2.83;88.61
35507;BME280;36461;52.018;21.036;2024-03-25T03:35:54;98865.21;;;2.83;88.34
35507;BME280;36461;52.018;21.036;2024-03-25T03:38:24;98862.92;;;2.79;88.09
35507;BME280;36461;52.018;21.036;2024-03-25T03:41:02;98869.31;;;2.76;88.52
35507;BME280;36461;52.018;21.036;2024-03-25T03:43:31;98869.79;;;2.70;88.19
35507;BME280;36461;52.018;21.036;2024-03-25T03:45:59;98866.52;;;2.65;88.10
35507;BME280;36461;52.018;21.036;2024-03-25T03:48:27;98865.98;;;2.58;87.95
35507;BME280;36461;52.018;21.036;2024-03-25T03:50:55;98871.69;;;2.56;88.56
35507;BME280;36461;52.018;21.036;2024-03-25T03:53:23;98869.48;;;2.55;88.41
35507;BME280;36461;52.018;21.036;2024-03-25T03:55:58;98871.54;;;2.55;88.52
35507;BME280;36461;52.018;21.036;2024-03-25T03:58:27;98877.66;;;2.56;88.62
35507;BME280;36461;52.018;21.036;2024-03-25T04:00:55;98879.00;;;2.57;88.87
35507;BME280;36461;52.018;21.036;2024-03-25T04:03:23;98878.44;;;2.59;89.14
35507;BME280;36461;52.018;21.036;2024-03-25T04:05:52;98879.98;;;2.59;89.02
35507;BME280;36461;52.018;21.036;2024-03-25T04:08:20;98886.61;;;2.60;89.00
35507;BME280;36461;52.018;21.036;2024-03-25T04:10:48;98888.27;;;2.62;89.23
35507;BME280;36461;52.018;21.036;2024-03-25T04:13:17;98882.30;;;2.61;89.18
35507;BME280;36461;52.018;21.036;2024-03-25T04:15:45;98882.48;;;2.61;89.12
35507;BME280;36461;52.018;21.036;2024-03-25T04:18:13;98883.66;;;2.62;89.30
35507;BME280;36461;52.018;21.036;2024-03-25T04:20:42;98882.31;;;2.61;88.91
35507;BME280;36461;52.018;21.036;2024-03-25T04:23:10;98876.02;;;2.60;88.97
35507;BME280;36461;52.018;21.036;2024-03-25T04:25:38;98876.70;;;2.61;89.16
35507;BME280;36461;52.018;21.036;2024-03-25T04:28:06;98875.11;;;2.62;89.15
35507;BME280;36461;52.018;21.036;2024-03-25T04:30:34;98878.65;;;2.64;88.91
35507;BME280;36461;52.018;21.036;2024-03-25T04:33:03;98874.38;;;2.64;89.23
35507;BME280;36461;52.018;21.036;2024-03-25T04:35:31;98877.29;;;2.64;89.32
35507;BME280;36461;52.018;21.036;2024-03-25T04:37:59;98878.27;;;2.66;89.52
35507;BME280;36461;52.018;21.036;2024-03-25T04:40:27;98882.48;;;2.68;89.33
35507;BME280;36461;52.018;21.036;2024-03-25T04:42:55;98876.65;;;2.69;89.30
35507;BME280;36461;52.018;21.036;2024-03-25T04:45:24;98880.34;;;2.72;89.56
35507;BME280;36461;52.018;21.036;2024-03-25T04:47:52;98885.55;;;2.76;89.73
35507;BME280;36461;52.018;21.036;2024-03-25T04:50:20;98883.20;;;2.81;89.74
35507;BME280;36461;52.018;21.036;2024-03-25T04:52:48;98885.13;;;2.86;89.66
35507;BME280;36461;52.018;21.036;2024-03-25T04:55:16;98890.33;;;2.90;89.68
35507;BME280;36461;52.018;21.036;2024-03-25T04:57:44;98889.77;;;2.92;89.46
35507;BME280;36461;52.018;21.036;2024-03-25T05:00:12;98890.75;;;2.94;89.40
35507;BME280;36461;52.018;21.036;2024-03-25T05:02:41;98889.90;;;2.94;89.38
35507;BME280;36461;52.018;21.036;2024-03-25T05:05:09;98891.13;;;2.92;89.47
35507;BME280;36461;52.018;21.036;2024-03-25T05:07:37;98886.86;;;2.92;89.21
35507;BME280;36461;52.018;21.036;2024-03-25T05:10:06;98887.98;;;2.95;89.22
35507;BME280;36461;52.018;21.036;2024-03-25T05:12:34;98887.55;;;2.99;89.07
35507;BME280;36461;52.018;21.036;2024-03-25T05:22:37;98890.66;;;3.17;89.09
35507;BME280;36461;52.018;21.036;2024-03-25T05:25:05;98892.39;;;3.16;88.60
35507;BME280;36461;52.018;21.036;2024-03-25T05:27:34;98891.48;;;3.12;88.62
35507;BME280;36461;52.018;21.036;2024-03-25T05:30:03;98889.45;;;3.11;88.97
35507;BME280;36461;52.018;21.036;2024-03-25T05:32:33;98892.23;;;3.10;88.65
35507;BME280;36461;52.018;21.036;2024-03-25T05:35:03;98891.45;;;3.07;88.33
35507;BME280;36461;52.018;21.036;2024-03-25T05:37:31;98893.40;;;3.04;88.46
35507;BME280;36461;52.018;21.036;2024-03-25T05:40:01;98892.73;;;3.03;88.15
35507;BME280;36461;52.018;21.036;2024-03-25T05:42:29;98891.62;;;3.07;88.55
35507;BME280;36461;52.018;21.036;2024-03-25T05:44:57;98896.14;;;3.17;88.80
35507;BME280;36461;52.018;21.036;2024-03-25T05:47:25;98897.09;;;3.27;88.79
35507;BME280;36461;52.018;21.036;2024-03-25T05:49:53;98898.45;;;3.33;89.19
35507;BME280;36461;52.018;21.036;2024-03-25T05:52:21;98901.73;;;3.38;89.07
35507;BME280;36461;52.018;21.036;2024-03-25T05:54:49;98908.06;;;3.39;88.67
35507;BME280;36461;52.018;21.036;2024-03-25T05:57:18;98907.48;;;3.34;88.24
35507;BME280;36461;52.018;21.036;2024-03-25T05:59:46;98906.17;;;3.32;88.37
35507;BME280;36461;52.018;21.036;2024-03-25T06:02:14;98907.87;;;3.33;88.50
35507;BME280;36461;52.018;21.036;2024-03-25T06:04:42;98908.96;;;3.36;88.72
35507;BME280;36461;52.018;21.036;2024-03-25T06:07:10;98910.05;;;3.41;88.54
35507;BME280;36461;52.018;21.036;2024-03-25T06:09:38;98914.03;;;3.45;88.82
35507;BME280;36461;52.018;21.036;2024-03-25T06:12:06;98916.37;;;3.54;89.07
35507;BME280;36461;52.018;21.036;2024-03-25T06:14:35;98918.65;;;3.65;89.03
35507;BME280;36461;52.018;21.036;2024-03-25T06:17:03;98916.65;;;3.75;89.01
35507;BME280;36461;52.018;21.036;2024-03-25T06:19:31;98919.04;;;3.88;89.12
35507;BME280;36461;52.018;21.036;2024-03-25T06:21:59;98919.61;;;3.97;89.06
35507;BME280;36461;52.018;21.036;2024-03-25T06:24:27;98919.55;;;4.06;88.85
35507;BME280;36461;52.018;21.036;2024-03-25T06:26:55;98921.77;;;4.12;88.59
35507;BME280;36461;52.018;21.036;2024-03-25T06:29:24;98922.00;;;4.21;88.61
35507;BME280;36461;52.018;21.036;2024-03-25T06:31:52;98918.86;;;4.29;88.61
35507;BME280;36461;52.018;21.036;2024-03-25T06:34:39;98922.95;;;4.41;88.60
35507;BME280;36461;52.018;21.036;2024-03-25T06:37:09;98923.81;;;4.52;88.64
35507;BME280;36461;52.018;21.036;2024-03-25T06:39:37;98921.06;;;4.64;88.35
35507;BME280;36461;52.018;21.036;2024-03-25T06:42:05;98926.25;;;4.73;88.07
35507;BME280;36461;52.018;21.036;2024-03-25T06:44:33;98928.84;;;4.83;87.83
35507;BME280;36461;52.018;21.036;2024-03-25T06:47:01;98929.65;;;4.90;87.68
35507;BME280;36461;52.018;21.036;2024-03-25T06:49:30;98932.45;;;4.94;87.43
35507;BME280;36461;52.018;21.036;2024-03-25T06:51:58;98930.16;;;4.95;87.09
35507;BME280;36461;52.018;21.036;2024-03-25T06:54:26;98931.89;;;5.00;87.14
35507;BME280;36461;52.018;21.036;2024-03-25T06:56:54;98929.02;;;5.04;87.42
35507;BME280;36461;52.018;21.036;2024-03-25T06:59:22;98927.69;;;5.08;87.08
35507;BME280;36461;52.018;21.036;2024-03-25T07:01:50;98927.86;;;5.13;87.13
35507;BME280;36461;52.018;21.036;2024-03-25T07:04:18;98930.78;;;5.18;86.91
35507;BME280;36461;52.018;21.036;2024-03-25T07:06:46;98926.16;;;5.23;86.52
35507;BME280;36461;52.018;21.036;2024-03-25T07:09:14;98926.67;;;5.28;86.30
35507;BME280;36461;52.018;21.036;2024-03-25T07:11:43;98931.70;;;5.37;86.08
35507;BME280;36461;52.018;21.036;2024-03-25T07:14:16;98930.52;;;5.46;86.11
35507;BME280;36461;52.018;21.036;2024-03-25T07:16:44;98930.89;;;5.55;85.87
35507;BME280;36461;52.018;21.036;2024-03-25T07:19:12;98934.70;;;5.64;85.55
35507;BME280;36461;52.018;21.036;2024-03-25T07:21:40;98936.56;;;5.75;85.40
35507;BME280;36461;52.018;21.036;2024-03-25T07:24:08;98933.55;;;5.87;84.86
35507;BME280;36461;52.018;21.036;2024-03-25T07:26:36;98931.75;;;6.04;85.17
35507;BME280;36461;52.018;21.036;2024-03-25T07:29:05;98933.27;;;6.18;84.52
35507;BME280;36461;52.018;21.036;2024-03-25T07:31:33;98932.54;;;6.25;83.92
35507;BME280;36461;52.018;21.036;2024-03-25T07:34:01;98937.69;;;6.25;83.66
35507;BME280;36461;52.018;21.036;2024-03-25T07:36:29;98938.49;;;6.26;83.32
35507;BME280;36461;52.018;21.036;2024-03-25T07:39:01;98940.04;;;6.26;82.73
35507;BME280;36461;52.018;21.036;2024-03-25T07:41:29;98937.88;;;6.29;82.65
35507;BME280;36461;52.018;21.036;2024-03-25T07:43:57;98937.41;;;6.32;82.51
35507;BME280;36461;52.018;21.036;2024-03-25T07:46:25;98938.50;;;6.40;82.69
35507;BME280;36461;52.018;21.036;2024-03-25T07:48:53;98943.31;;;6.48;82.67
35507;BME280;36461;52.018;21.036;2024-03-25T07:51:21;98947.46;;;6.57;82.78
35507;BME280;36461;52.018;21.036;2024-03-25T07:53:50;98948.66;;;6.61;82.24
35507;BME280;36461;52.018;21.036;2024-03-25T07:56:18;98950.29;;;6.64;81.81
35507;BME280;36461;52.018;21.036;2024-03-25T07:58:46;98951.44;;;6.74;81.85
35507;BME280;36461;52.018;21.036;2024-03-25T08:01:14;98952.38;;;6.81;81.34
35507;BME280;36461;52.018;21.036;2024-03-25T08:03:42;98952.57;;;6.84;81.07
35507;BME280;36461;52.018;21.036;2024-03-25T08:06:10;98953.38;;;6.90;80.71
35507;BME280;36461;52.018;21.036;2024-03-25T08:08:38;98949.48;;;6.93;80.13
35507;BME280;36461;52.018;21.036;2024-03-25T08:11:06;98952.58;;;6.98;80.28
35507;BME280;36461;52.018;21.036;2024-03-25T08:13:34;98950.90;;;7.05;79.93
35507;BME280;36461;52.018;21.036;2024-03-25T08:16:03;98949.62;;;7.11;79.46
35507;BME280;36461;52.018;21.036;2024-03-25T08:18:31;98947.52;;;7.16;79.35
35507;BME280;36461;52.018;21.036;2024-03-25T08:20:58;98950.34;;;7.27;79.40
35507;BME280;36461;52.018;21.036;2024-03-25T08:23:27;98951.09;;;7.42;79.61
35507;BME280;36461;52.018;21.036;2024-03-25T08:25:55;98950.11;;;7.61;79.24
35507;BME280;36461;52.018;21.036;2024-03-25T08:28:23;98945.77;;;7.74;78.55
35507;BME280;36461;52.018;21.036;2024-03-25T08:30:52;98949.37;;;7.86;78.78
35507;BME280;36461;52.018;21.036;2024-03-25T08:33:19;98952.41;;;7.99;78.17
35507;BME280;36461;52.018;21.036;2024-03-25T08:35:47;98947.55;;;8.12;77.96
35507;BME280;36461;52.018;21.036;2024-03-25T08:38:15;98951.06;;;8.33;78.03
35507;BME280;36461;52.018;21.036;2024-03-25T08:40:43;98946.98;;;8.66;77.54
35507;BME280;36461;52.018;21.036;2024-03-25T08:43:11;98946.23;;;9.00;75.89
35507;BME280;36461;52.018;21.036;2024-03-25T08:45:40;98943.31;;;9.31;75.83
35507;BME280;36461;52.018;21.036;2024-03-25T08:48:08;98942.73;;;9.70;75.39
35507;BME280;36461;52.018;21.036;2024-03-25T08:50:36;98945.50;;;10.09;75.71
35507;BME280;36461;52.018;21.036;2024-03-25T08:53:05;98942.77;;;10.51;75.41
35507;BME280;36461;52.018;21.036;2024-03-25T08:55:34;98943.00;;;10.75;73.66
35507;BME280;36461;52.018;21.036;2024-03-25T08:58:02;98947.73;;;10.83;72.81
35507;BME280;36461;52.018;21.036;2024-03-25T09:00:30;98946.05;;;10.89;72.10
35507;BME280;36461;52.018;21.036;2024-03-25T09:02:58;98953.92;;;10.90;71.82
35507;BME280;36461;52.018;21.036;2024-03-25T09:05:27;98956.92;;;10.89;70.51
35507;BME280;36461;52.018;21.036;2024-03-25T09:07:54;98964.38;;;10.80;69.96
35507;BME280;36461;52.018;21.036;2024-03-25T09:10:25;98966.66;;;10.66;69.58
35507;BME280;36461;52.018;21.036;2024-03-25T09:13:12;98966.06;;;10.39;68.84
35507;BME280;36461;52.018;21.036;2024-03-25T09:15:40;98966.25;;;10.16;69.31
35507;BME280;36461;52.018;21.036;2024-03-25T09:18:08;98974.22;;;10.03;69.96
35507;BME280;36461;52.018;21.036;2024-03-25T09:20:36;98975.40;;;9.89;70.24
35507;BME280;36461;52.018;21.036;2024-03-25T09:23:04;98972.41;;;9.77;70.18
35507;BME280;36461;52.018;21.036;2024-03-25T09:25:32;98970.38;;;9.66;70.43
35507;BME280;36461;52.018;21.036;2024-03-25T09:28:00;98972.04;;;9.71;70.96
35507;BME280;36461;52.018;21.036;2024-03-25T09:30:29;98972.98;;;9.79;71.25
35507;BME280;36461;52.018;21.036;2024-03-25T09:32:57;98971.16;;;9.82;71.27
35507;BME280;36461;52.018;21.036;2024-03-25T09:35:25;98975.91;;;9.86;71.73
35507;BME280;36461;52.018;21.036;2024-03-25T09:37:53;98971.77;;;9.93;72.02
35507;BME280;36461;52.018;21.036;2024-03-25T09:40:21;98975.38;;;10.00;71.93
35507;BME280;36461;52.018;21.036;2024-03-25T09:42:55;98975.07;;;9.99;70.97
35507;BME280;36461;52.018;21.036;2024-03-25T09:45:24;98977.27;;;9.97;71.01
35507;BME280;36461;52.018;21.036;2024-03-25T09:47:56;98976.17;;;9.91;70.66
35507;BME280;36461;52.018;21.036;2024-03-25T09:50:24;98976.89;;;9.88;70.48
35507;BME280;36461;52.018;21.036;2024-03-25T09:52:52;98979.25;;;9.96;70.19
35507;BME280;36461;52.018;21.036;2024-03-25T09:55:20;98981.00;;;10.02;69.57
35507;BME280;36461;52.018;21.036;2024-03-25T09:57:48;98982.51;;;10.12;69.58
35507;BME280;36461;52.018;21.036;2024-03-25T10:00:17;98980.61;;;10.28;69.40
35507;BME280;36461;52.018;21.036;2024-03-25T10:02:46;98974.58;;;10.42;68.83
35507;BME280;36461;52.018;21.036;2024-03-25T10:05:14;98975.27;;;10.52;68.31
35507;BME280;36461;52.018;21.036;2024-03-25T10:07:43;98969.23;;;10.67;67.94
35507;BME280;36461;52.018;21.036;2024-03-25T10:10:11;98968.14;;;10.80;67.22
35507;BME280;36461;52.018;21.036;2024-03-25T10:12:40;98963.88;;;10.95;66.23
35507;BME280;36461;52.018;21.036;2024-03-25T10:15:09;98967.77;;;11.03;65.31
35507;BME280;36461;52.018;21.036;2024-03-25T10:17:43;98970.53;;;11.09;65.02
35507;BME280;36461;52.018;21.036;2024-03-25T10:20:14;98974.16;;;11.24;65.09
35507;BME280;36461;52.018;21.036;2024-03-25T10:22:43;98970.45;;;11.40;64.65
35507;BME280;36461;52.018;21.036;2024-03-25T10:25:31;98972.63;;;11.54;64.01
35507;BME280;36461;52.018;21.036;2024-03-25T10:28:00;98973.09;;;11.67;63.09
35507;BME280;36461;52.018;21.036;2024-03-25T10:30:29;98968.58;;;11.87;63.23
35507;BME280;36461;52.018;21.036;2024-03-25T10:33:04;98977.15;;;12.09;62.28
35507;BME280;36461;52.018;21.036;2024-03-25T10:35:35;98974.94;;;12.23;62.31
35507;BME280;36461;52.018;21.036;2024-03-25T10:38:09;98972.27;;;12.38;61.08
35507;BME280;36461;52.018;21.036;2024-03-25T10:40:39;98977.30;;;12.38;60.52
35507;BME280;36461;52.018;21.036;2024-03-25T10:43:09;98975.73;;;12.36;59.84
35507;BME280;36461;52.018;21.036;2024-03-25T10:45:42;98976.27;;;12.32;59.86
35507;BME280;36461;52.018;21.036;2024-03-25T10:48:23;98977.31;;;12.26;59.24
35507;BME280;36461;52.018;21.036;2024-03-25T10:50:56;98973.89;;;12.25;59.07
35507;BME280;36461;52.018;21.036;2024-03-25T10:53:24;98977.64;;;12.33;59.00
35507;BME280;36461;52.018;21.036;2024-03-25T10:55:56;98979.00;;;12.30;58.70
35507;BME280;36461;52.018;21.036;2024-03-25T10:58:24;98983.52;;;12.30;58.72
35507;BME280;36461;52.018;21.036;2024-03-25T11:00:54;98977.80;;;12.33;57.98
35507;BME280;36461;52.018;21.036;2024-03-25T11:03:24;98978.55;;;12.29;57.61
35507;BME280;36461;52.018;21.036;2024-03-25T11:05:53;98977.41;;;12.36;57.89
35507;BME280;36461;52.018;21.036;2024-03-25T11:08:30;98978.92;;;12.54;58.33
35507;BME280;36461;52.018;21.036;2024-03-25T11:10:59;98973.08;;;12.64;57.45
35507;BME280;36461;52.018;21.036;2024-03-25T11:13:28;98974.45;;;12.64;57.47
35507;BME280;36461;52.018;21.036;2024-03-25T11:15:57;98978.05;;;12.62;56.90
35507;BME280;36461;52.018;21.036;2024-03-25T11:18:27;98977.34;;;12.52;56.56
35507;BME280;36461;52.018;21.036;2024-03-25T11:21:07;98972.88;;;12.50;57.04
35507;BME280;36461;52.018;21.036;2024-03-25T11:23:43;98972.73;;;12.50;56.93
35507;BME280;36461;52.018;21.036;2024-03-25T11:26:21;98973.24;;;12.36;56.47
35507;BME280;36461;52.018;21.036;2024-03-25T11:28:51;98976.13;;;12.17;56.12
35507;BME280;36461;52.018;21.036;2024-03-25T11:31:25;98976.55;;;12.11;56.82
35507;BME280;36461;52.018;21.036;2024-03-25T11:33:54;98977.84;;;11.98;56.32
35507;BME280;36461;52.018;21.036;2024-03-25T11:36:22;98974.54;;;11.92;56.42
35507;BME280;36461;52.018;21.036;2024-03-25T11:39:04;98973.02;;;11.97;56.78
35507;BME280;36461;52.018;21.036;2024-03-25T11:41:33;98973.81;;;12.10;56.68
35507;BME280;36461;52.018;21.036;2024-03-25T11:44:04;98969.93;;;12.08;56.12
35507;BME280;36461;52.018;21.036;2024-03-25T11:46:38;98970.16;;;11.84;55.46
35507;BME280;36461;52.018;21.036;2024-03-25T11:49:12;98967.93;;;11.66;56.15
35507;BME280;36461;52.018;21.036;2024-03-25T11:51:42;98970.69;;;11.57;56.74
35507;BME280;36461;52.018;21.036;2024-03-25T11:54:12;98973.70;;;11.50;56.56
35507;BME280;36461;52.018;21.036;2024-03-25T11:56:41;98973.29;;;11.39;56.47
35507;BME280;36461;52.018;21.036;2024-03-25T11:59:11;98969.11;;;11.31;56.88
35507;BME280;36461;52.018;21.036;2024-03-25T12:01:41;98971.91;;;11.48;57.62
35507;BME280;36461;52.018;21.036;2024-03-25T12:04:18;98970.91;;;11.77;56.97
35507;BME280;36461;52.018;21.036;2024-03-25T12:06:47;98966.73;;;11.95;56.07
35507;BME280;36461;52.018;21.036;2024-03-25T12:09:15;98965.66;;;12.24;56.08
35507;BME280;36461;52.018;21.036;2024-03-25T12:12:02;98970.59;;;12.40;55.44
35507;BME280;36461;52.018;21.036;2024-03-25T12:14:31;98970.92;;;12.40;54.37
35507;BME280;36461;52.018;21.036;2024-03-25T12:16:59;98974.38;;;12.32;53.95
35507;BME280;36461;52.018;21.036;2024-03-25T12:19:27;98976.31;;;12.23;54.21
35507;BME280;36461;52.018;21.036;2024-03-25T12:22:01;98975.20;;;12.07;53.45
35507;BME280;36461;52.018;21.036;2024-03-25T12:24:29;98975.22;;;11.92;54.11
35507;BME280;36461;52.018;21.036;2024-03-25T12:26:58;98978.98;;;11.90;54.52
35507;BME280;36461;52.018;21.036;2024-03-25T12:29:26;98978.02;;;11.95;55.02
35507;BME280;36461;52.018;21.036;2024-03-25T12:31:55;98980.77;;;12.18;55.43
35507;BME280;36461;52.018;21.036;2024-03-25T12:34:27;98979.55;;;12.35;55.40
35507;BME280;36461;52.018;21.036;2024-03-25T12:37:04;98986.70;;;12.43;55.36
35507;BME280;36461;52.018;21.036;2024-03-25T12:39:47;98985.48;;;12.38;54.97
35507;BME280;36461;52.018;21.036;2024-03-25T12:42:15;98992.91;;;12.27;54.59
35507;BME280;36461;52.018;21.036;2024-03-25T12:44:44;98989.92;;;12.07;54.51
35507;BME280;36461;52.018;21.036;2024-03-25T12:47:12;98988.23;;;12.01;54.54
35507;BME280;36461;52.018;21.036;2024-03-25T12:49:41;98987.04;;;11.88;54.41
35507;BME280;36461;52.018;21.036;2024-03-25T12:52:10;98985.03;;;11.82;55.03
35507;BME280;36461;52.018;21.036;2024-03-25T12:54:38;98986.52;;;11.85;55.12
35507;BME280;36461;52.018;21.036;2024-03-25T12:57:08;98986.42;;;11.93;55.37
35507;BME280;36461;52.018;21.036;2024-03-25T12:59:38;98987.71;;;12.01;55.01
35507;BME280;36461;52.018;21.036;2024-03-25T13:02:11;98987.51;;;12.02;54.67
35507;BME280;36461;52.018;21.036;2024-03-25T13:04:40;98988.27;;;12.03;55.32
35507;BME280;36461;52.018;21.036;2024-03-25T13:07:11;98987.16;;;12.07;54.81
35507;BME280;36461;52.018;21.036;2024-03-25T13:09:39;98989.09;;;12.07;55.06
35507;BME280;36461;52.018;21.036;2024-03-25T13:12:07;98988.00;;;11.99;55.01
35507;BME280;36461;52.018;21.036;2024-03-25T13:14:35;98994.27;;;12.02;55.28